Time,TemperatureF,DewpointF,PressureIn,WindDirection,WindDirectionDegrees,WindSpeedMPH,WindSpeedGustMPH,Humidity,HourlyPrecipIn,Conditions,Clouds,dailyrainin,SoftwareType,DateUTC
2013-09-14 00:22:00,46.0,41.0,30.15,SE,132,0.0,0.0,83,0.00,,,0.00,,2013-09-14 05:22:00,
2013-09-14 00:52:00,46.0,41.0,30.14,SE,132,0.0,0.0,84,0.00,,,0.00,,2013-09-14 05:52:00,
2013-09-14 01:12:00,45.0,40.0,30.14,SE,132,0.0,0.0,84,0.00,,,0.00,,2013-09-14 06:12:00,
2013-09-14 01:21:00,45.0,40.0,30.14,SE,132,0.0,0.0,84,0.00,,,0.00,,2013-09-14 06:21:00,
2013-09-14 04:12:00,43.0,39.0,30.14,SE,132,0.0,0.0,86,0.00,,,0.00,,2013-09-14 09:12:00,
2013-09-14 04:21:00,43.0,39.0,30.15,SE,132,0.0,0.0,87,0.00,,,0.00,,2013-09-14 09:21:00,
2013-09-14 04:54:00,43.0,39.0,30.15,SE,132,0.0,0.0,86,0.00,,,0.00,,2013-09-14 09:54:00,
2013-09-14 05:23:00,42.0,38.0,30.15,SE,132,0.0,0.0,86,0.00,,,0.00,,2013-09-14 10:23:00,
2013-09-14 05:53:00,42.0,38.0,30.15,SE,132,0.0,0.0,86,0.00,,,0.00,,2013-09-14 10:53:00,
2013-09-14 06:12:00,42.0,38.0,30.15,SE,132,0.0,0.0,87,0.00,,,0.00,,2013-09-14 11:12:00,
2013-09-14 06:22:00,42.0,38.0,30.15,SE,132,0.0,0.0,86,0.00,,,0.00,,2013-09-14 11:22:00,
2013-09-14 06:52:00,41.0,37.0,30.15,SE,132,0.0,0.0,87,0.00,,,0.00,,2013-09-14 11:52:00,
2013-09-14 07:12:00,41.0,37.0,30.16,SE,132,0.0,0.0,87,0.00,,,0.00,,2013-09-14 12:12:00,
2013-09-14 07:22:00,41.0,37.0,30.17,SE,132,0.0,0.0,87,0.00,,,0.00,,2013-09-14 12:22:00,
2013-09-14 07:52:00,42.0,39.0,30.17,SE,132,0.0,0.0,88,0.00,,,0.00,,2013-09-14 12:52:00,
2013-09-14 08:12:00,42.0,39.0,30.18,SE,132,0.0,0.0,88,0.00,,,0.00,,2013-09-14 13:12:00,
2013-09-14 08:21:00,43.0,40.0,30.18,SE,132,0.0,0.0,88,0.00,,,0.00,,2013-09-14 13:21:00,
2013-09-14 08:42:00,44.0,41.0,30.18,SE,132,0.0,0.0,88,0.00,,,0.00,,2013-09-14 13:42:00,
2013-09-14 08:52:00,45.0,42.0,30.18,SE,132,0.0,0.0,89,0.00,,,0.00,,2013-09-14 13:52:00,
2013-09-14 09:12:00,48.0,45.0,30.19,ESE,107,0.0,1.0,89,0.00,,,0.00,,2013-09-14 14:12:00,
2013-09-14 09:22:00,50.0,47.0,30.18,East,91,0.0,3.0,89,0.00,,,0.00,,2013-09-14 14:22:00,
2013-09-14 09:52:00,54.0,51.0,30.18,ESE,113,0.0,3.0,88,0.00,,,0.00,,2013-09-14 14:52:00,
2013-09-14 10:22:00,60.0,48.0,30.18,NNW,329,1.0,5.0,65,0.00,,,0.00,,2013-09-14 15:22:00,
2013-09-14 11:13:00,67.0,47.0,30.17,ESE,108,0.0,3.0,48,0.00,,,0.00,,2013-09-14 16:13:00,
2013-09-14 11:54:00,70.0,46.0,30.16,WSW,254,0.0,5.0,42,0.00,,,0.00,,2013-09-14 16:54:00,
2013-09-14 12:11:00,70.0,45.0,30.15,NW,304,0.0,6.0,41,0.00,,,0.00,,2013-09-14 17:11:00,
2013-09-14 12:23:00,72.0,41.0,30.15,SSE,161,0.0,2.0,33,0.00,,,0.00,,2013-09-14 17:23:00,
2013-09-14 12:54:00,73.0,42.0,30.13,NW,307,0.0,3.0,33,0.00,,,0.00,,2013-09-14 17:54:00,
2013-09-14 13:22:00,75.0,40.0,30.11,WNW,296,1.0,4.0,28,0.00,,,0.00,,2013-09-14 18:22:00,
2013-09-14 13:52:00,75.0,42.0,30.10,SE,137,0.0,5.0,31,0.00,,,0.00,,2013-09-14 18:52:00,
2013-09-14 14:11:00,76.0,41.0,30.09,ESE,116,1.0,5.0,28,0.00,,,0.00,,2013-09-14 19:11:00,
2013-09-14 14:22:00,77.0,38.0,30.09,WNW,286,1.0,4.0,25,0.00,,,0.00,,2013-09-14 19:22:00,
2013-09-14 14:52:00,78.0,41.0,30.07,ESE,123,0.0,1.0,27,0.00,,,0.00,,2013-09-14 19:52:00,
2013-09-14 15:12:00,78.0,38.0,30.07,SE,130,0.0,4.0,24,0.00,,,0.00,,2013-09-14 20:12:00,
2013-09-14 15:22:00,77.0,42.0,30.06,NNW,340,1.0,4.0,29,0.00,,,0.00,,2013-09-14 20:22:00,
2013-09-14 15:52:00,78.0,41.0,30.05,WNW,302,0.0,4.0,27,0.00,,,0.00,,2013-09-14 20:52:00,
2013-09-14 16:11:00,79.0,40.0,30.04,East,86,0.0,2.0,25,0.00,,,0.00,,2013-09-14 21:11:00,
2013-09-14 16:22:00,79.0,41.0,30.04,NW,308,0.0,6.0,26,0.00,,,0.00,,2013-09-14 21:22:00,
2013-09-14 16:44:00,78.0,39.0,30.04,SE,137,1.0,5.0,25,0.00,,,0.00,,2013-09-14 21:44:00,
2013-09-14 16:54:00,78.0,39.0,30.03,SSW,213,0.0,3.0,25,0.00,,,0.00,,2013-09-14 21:54:00,
2013-09-14 17:13:00,77.0,38.0,30.03,SE,131,0.0,4.0,25,0.00,,,0.00,,2013-09-14 22:13:00,
2013-09-14 17:24:00,77.0,41.0,30.03,NNW,328,0.0,4.0,28,0.00,,,0.00,,2013-09-14 22:24:00,
2013-09-14 17:42:00,77.0,39.0,30.03,NE,56,0.0,1.0,26,0.00,,,0.00,,2013-09-14 22:42:00,
2013-09-14 17:53:00,76.0,40.0,30.02,ESE,121,0.0,4.0,27,0.00,,,0.00,,2013-09-14 22:53:00,
2013-09-14 18:11:00,76.0,43.0,30.02,ESE,121,0.0,1.0,31,0.00,,,0.00,,2013-09-14 23:11:00,
2013-09-14 18:23:00,75.0,42.0,30.02,ESE,121,0.0,1.0,31,0.00,,,0.00,,2013-09-14 23:23:00,
2013-09-14 18:53:00,72.0,45.0,30.02,ESE,121,0.0,0.0,38,0.00,,,0.00,,2013-09-14 23:53:00,
2013-09-14 19:12:00,70.0,46.0,30.02,ESE,121,0.0,0.0,43,0.00,,,0.00,,2013-09-15 00:12:00,
2013-09-14 19:22:00,68.0,46.0,30.03,ESE,121,0.0,0.0,45,0.00,,,0.00,,2013-09-15 00:22:00,
2013-09-14 19:42:00,65.0,47.0,30.02,ESE,121,0.0,0.0,52,0.00,,,0.00,,2013-09-15 00:42:00,
2013-09-14 19:53:00,64.0,48.0,30.01,ESE,121,0.0,0.0,56,0.00,,,0.00,,2013-09-15 00:53:00,
2013-09-14 20:11:00,62.0,47.0,30.01,ESE,121,0.0,0.0,59,0.00,,,0.00,,2013-09-15 01:11:00,
2013-09-14 20:22:00,61.0,47.0,30.01,ESE,121,0.0,0.0,59,0.00,,,0.00,,2013-09-15 01:22:00,
2013-09-14 20:42:00,61.0,47.0,30.02,ESE,121,0.0,0.0,61,0.00,,,0.00,,2013-09-15 01:42:00,
2013-09-14 20:52:00,60.0,47.0,30.01,ESE,121,0.0,0.0,62,0.00,,,0.00,,2013-09-15 01:52:00,
2013-09-14 21:12:00,60.0,47.0,30.02,ESE,121,0.0,0.0,62,0.00,,,0.00,,2013-09-15 02:12:00,
2013-09-14 21:22:00,59.0,47.0,30.02,ESE,121,0.0,0.0,64,0.00,,,0.00,,2013-09-15 02:22:00,
2013-09-14 21:42:00,58.0,46.0,30.01,ESE,121,0.0,0.0,65,0.00,,,0.00,,2013-09-15 02:42:00,
2013-09-14 21:52:00,58.0,46.0,30.01,ESE,121,0.0,0.0,65,0.00,,,0.00,,2013-09-15 02:52:00,
2013-09-14 22:11:00,57.0,46.0,30.01,ESE,121,0.0,0.0,67,0.00,,,0.00,,2013-09-15 03:11:00,
2013-09-14 22:22:00,57.0,46.0,30.01,ESE,121,0.0,0.0,66,0.00,,,0.00,,2013-09-15 03:22:00,
2013-09-14 22:55:00,57.0,45.0,30.00,ESE,121,0.0,0.0,65,0.00,,,0.00,,2013-09-15 03:55:00,
2013-09-14 23:02:00,-999.0,-99.9,30.00,ESE,121,0.0,0.0,-999,-99.99,,,-99.99,,2013-09-15 04:02:00,
2013-09-14 23:14:00,57.0,46.0,30.00,ESE,121,0.0,0.0,66,0.00,,,0.00,,2013-09-15 04:14:00,
2013-09-14 23:24:00,57.0,45.0,29.99,ESE,121,0.0,0.0,63,0.00,,,0.00,,2013-09-15 04:24:00,
2013-09-14 23:54:00,57.0,45.0,29.99,ESE,121,0.0,0.0,63,0.00,,,0.00,,2013-09-15 04:54:00,